KBIE/BIE METAR and TAF weather

Enter ICAO airport designator
Station Type Date Time Source
KBIE METAR 2020/01/18 04:15 UTC NOAA

KBIE 180415Z AUTO 17003KT 2 1/2SM BR BKN004 OVC008 01/01 A2976 RMK AO2 T00130013


Station Type Date Time Source
KBIE Decoded METAR 2020/01/18 04:15 UTC NOAA

Beatrice Municipal, NE, United States (KBIE) 40-18N 096-45W
Jan 17, 2020 - 11:15 PM EST / 2020.01.18 0415 UTC
Wind: from the S (170 degrees) at 3 MPH (3 KT):0
Visibility: 2 1/2 mile(s):0
Sky conditions: overcast
Weather: mist
Temperature: 34.3 F (1.3 C)
Dew Point: 34.3 F (1.3 C)
Relative Humidity: 100%
Pressure (altimeter): 29.76 in. Hg (1007 hPa)
ob: KBIE 180415Z AUTO 17003KT 2 1/2SM BR BKN004 OVC008 01/01 A2976 RMK AO2 T00130013
cycle: 4

Station Type Date Time Source
KBIE TAF UTC NOAA

Error!

Example: see airport list